Time;durP1;ratioP1;P1;durP2;ratioP2;P2;SDS_P1;SDS_P2;PMS_P1;PMS_P2;Temp;Humidity;BMP_temperature;BMP_pressure;BME280_temperature;BME280_humidity;BME280_pressure;Samples;Min_cycle;Max_cycle;Signal;HPM_P1;HPM_P2
2023/11/21 00:00:50;;;;;;;7.65;3.85;;;8.10;95.70;;;;;;5006550;28;20718;-91
2023/11/21 00:03:19;;;;;;;4.95;2.35;;;8.10;96.00;;;;;;4999297;28;20286;-91
2023/11/21 00:05:46;;;;;;;5.63;2.90;;;8.10;96.20;;;;;;5003431;28;20230;-92
2023/11/21 00:08:13;;;;;;;4.15;1.67;;;8.10;96.50;;;;;;5008583;28;20206;-91
2023/11/21 00:10:39;;;;;;;6.93;1.90;;;8.10;96.90;;;;;;5013420;28;20310;-92
2023/11/21 00:13:08;;;;;;;7.38;1.98;;;8.00;97.20;;;;;;4974504;28;20222;-91
2023/11/21 00:15:35;;;;;;;6.47;2.88;;;8.00;98.00;;;;;;5007693;28;20203;-91
2023/11/21 00:18:01;;;;;;;8.95;2.40;;;8.00;98.00;;;;;;4993065;28;20283;-91
2023/11/21 00:20:28;;;;;;;8.27;2.80;;;7.90;98.30;;;;;;5013248;28;20564;-92
2023/11/21 00:22:55;;;;;;;7.20;3.85;;;7.90;98.40;;;;;;5011513;28;20201;-92
2023/11/21 00:25:22;;;;;;;7.32;2.33;;;7.90;99.00;;;;;;5011812;28;20191;-92
2023/11/21 00:27:49;;;;;;;8.32;2.95;;;7.90;99.00;;;;;;4995478;28;20210;-91
2023/11/21 00:32:59;;;;;;;6.85;2.03;;;7.90;99.30;;;;;;5000550;28;20261;-92
2023/11/21 00:35:27;;;;;;;2.95;1.55;;;7.90;99.10;;;;;;5008809;28;20206;-91
2023/11/21 00:38:00;;;;;;;7.15;2.15;;;7.90;99.00;;;;;;4994512;28;20201;-91
2023/11/21 00:40:47;;;;;;;9.25;3.72;;;7.90;99.00;;;;;;4989135;28;20203;-91
2023/11/21 00:43:15;;;;;;;14.13;6.78;;;7.90;99.60;;;;;;4996181;28;20195;-91
2023/11/21 00:48:24;;;;;;;4.43;1.50;;;8.00;98.40;;;;;;5002443;28;20715;-92
2023/11/21 00:50:51;;;;;;;11.73;3.78;;;8.00;98.70;;;;;;5008899;28;20231;-91
2023/11/21 00:53:18;;;;;;;21.85;14.20;;;8.20;99.20;;;;;;5004174;28;20653;-91
2023/11/21 00:55:47;;;;;;;10.10;5.30;;;8.10;99.40;;;;;;4989629;28;20234;-91
2023/11/21 00:58:14;;;;;;;8.90;3.70;;;8.20;99.20;;;;;;5010207;28;20205;-92
2023/11/21 01:03:26;;;;;;;7.28;3.45;;;8.10;99.00;;;;;;4993079;28;20216;-91
2023/11/21 01:06:13;;;;;;;12.07;5.22;;;8.10;99.20;;;;;;5004322;28;20290;-92
2023/11/21 01:08:40;;;;;;;7.47;1.60;;;8.10;99.40;;;;;;5010556;28;20203;-91
2023/11/21 01:11:08;;;;;;;4.28;1.50;;;8.20;99.20;;;;;;5010680;28;20707;-92
2023/11/21 01:13:35;;;;;;;4.80;1.52;;;8.10;99.30;;;;;;5009989;28;20606;-92
2023/11/21 01:16:06;;;;;;;6.93;2.80;;;8.10;99.30;;;;;;5004135;28;20196;-92
2023/11/21 01:18:53;;;;;;;6.15;1.85;;;8.00;99.90;;;;;;5002689;28;20195;-91
2023/11/21 01:21:22;;;;;;;6.22;1.88;;;7.90;99.90;;;;;;4991318;28;20199;-91
2023/11/21 01:23:49;;;;;;;5.60;1.70;;;7.80;99.90;;;;;;5001184;28;20199;-91
2023/11/21 01:26:16;;;;;;;7.20;1.75;;;7.60;99.90;;;;;;4982293;28;20534;-92
2023/11/21 01:28:43;;;;;;;4.50;1.63;;;7.50;99.90;;;;;;4978377;28;20203;-92
2023/11/21 01:31:13;;;;;;;5.50;1.83;;;7.40;99.90;;;;;;4990019;28;20215;-92
2023/11/21 01:33:59;;;;;;;5.45;2.50;;;7.50;99.90;;;;;;5005452;28;20204;-92
2023/11/21 01:36:31;;;;;;;11.13;3.83;;;7.40;99.90;;;;;;5005821;28;20211;-92
2023/11/21 01:38:59;;;;;;;7.18;3.58;;;7.40;99.90;;;;;;5002101;28;20242;-92
2023/11/21 01:41:27;;;;;;;4.72;1.70;;;7.60;99.90;;;;;;4990917;28;20209;-92
2023/11/21 01:43:54;;;;;;;7.68;2.17;;;7.50;99.90;;;;;;4974546;28;20681;-92
2023/11/21 01:49:05;;;;;;;3.92;1.67;;;7.20;99.90;;;;;;5008179;28;20293;-92
2023/11/21 01:51:32;;;;;;;4.47;1.65;;;7.20;99.90;;;;;;5011279;28;20318;-91
2023/11/21 01:54:00;;;;;;;4.28;1.77;;;7.30;99.90;;;;;;5003824;28;20200;-91
2023/11/21 01:59:07;;;;;;;7.20;2.25;;;7.20;99.90;;;;;;5009970;28;20253;-92
2023/11/21 02:01:36;;;;;;;9.30;4.00;;;7.20;99.90;;;;;;4993207;28;20208;-92
2023/11/21 02:04:03;;;;;;;6.68;2.80;;;7.30;99.90;;;;;;5011543;28;20200;-91
2023/11/21 02:06:31;;;;;;;5.18;1.77;;;7.40;99.90;;;;;;4990018;28;20210;-92
2023/11/21 02:08:59;;;;;;;4.43;1.70;;;7.50;99.90;;;;;;5011131;28;20232;-91
2023/11/21 02:11:27;;;;;;;6.13;1.75;;;7.50;99.90;;;;;;5012794;28;20228;-91
2023/11/21 02:13:54;;;;;;;5.30;2.00;;;7.50;99.90;;;;;;5016049;28;20183;-91
2023/11/21 02:16:22;;;;;;;9.05;2.17;;;7.60;99.90;;;;;;4986145;28;20200;-92
2023/11/21 02:21:54;;;;;;;4.15;1.80;;;7.40;99.90;;;;;;5009334;28;20207;-91
2023/11/21 02:24:23;;;;;;;6.75;1.90;;;7.30;99.90;;;;;;4994984;28;20263;-91
2023/11/21 02:27:00;;;;;;;7.45;2.00;;;7.20;99.90;;;;;;4996350;28;20290;-92
2023/11/21 02:29:27;;;;;;;6.68;2.00;;;7.20;99.90;;;;;;5004347;28;20215;-91
2023/11/21 02:31:56;;;;;;;6.30;2.05;;;7.20;99.90;;;;;;5013353;28;20247;-92
2023/11/21 02:34:24;;;;;;;5.45;1.80;;;7.30;99.90;;;;;;5011251;28;20203;-91
2023/11/21 02:36:52;;;;;;;9.35;2.13;;;7.30;99.90;;;;;;4995509;28;20205;-91
2023/11/21 02:39:21;;;;;;;5.57;1.80;;;7.50;99.90;;;;;;5008165;28;20210;-91
2023/11/21 02:41:50;;;;;;;6.72;1.65;;;7.50;99.90;;;;;;5008335;28;20583;-91
2023/11/21 02:44:17;;;;;;;5.30;2.13;;;7.60;99.90;;;;;;5008689;28;20208;-90
2023/11/21 02:46:44;;;;;;;4.85;1.80;;;7.60;99.90;;;;;;5005105;28;20684;-91
2023/11/21 02:49:11;;;;;;;4.68;1.75;;;7.70;99.90;;;;;;4989510;28;20714;-91
2023/11/21 02:51:38;;;;;;;3.88;1.10;;;7.70;99.90;;;;;;5009413;28;20604;-92
2023/11/21 02:54:08;;;;;;;5.65;1.63;;;7.70;99.90;;;;;;5007169;28;20211;-91
2023/11/21 02:56:35;;;;;;;6.00;1.88;;;7.60;99.90;;;;;;4992117;28;20291;-91
2023/11/21 03:01:44;;;;;;;5.82;2.35;;;7.40;99.90;;;;;;5004595;28;20297;-91
2023/11/21 03:04:11;;;;;;;6.72;1.92;;;7.40;99.90;;;;;;5011051;28;20195;-91
2023/11/21 03:06:38;;;;;;;3.42;1.80;;;7.60;99.90;;;;;;4994108;28;20649;-90
2023/11/21 03:09:06;;;;;;;3.13;1.70;;;7.70;99.90;;;;;;5010252;28;20195;-91
2023/11/21 03:11:35;;;;;;;5.13;1.80;;;7.60;99.90;;;;;;4989918;28;20227;-91
2023/11/21 03:14:03;;;;;;;3.78;1.60;;;7.70;99.90;;;;;;4991851;28;20200;-91
2023/11/21 03:16:31;;;;;;;5.72;1.50;;;7.70;99.90;;;;;;4989370;28;20210;-91
2023/11/21 03:18:58;;;;;;;5.63;1.70;;;7.70;99.90;;;;;;5006014;28;20203;-91
2023/11/21 03:21:26;;;;;;;6.65;1.80;;;7.60;99.90;;;;;;4976672;28;20768;-91
2023/11/21 03:23:53;;;;;;;6.70;1.85;;;7.50;99.90;;;;;;5005683;28;20199;-91
2023/11/21 03:26:20;;;;;;;6.13;1.70;;;7.50;99.90;;;;;;5006976;28;20214;-91
2023/11/21 03:28:47;;;;;;;5.93;2.03;;;7.40;99.90;;;;;;4993455;28;20653;-91
2023/11/21 03:31:23;;;;;;;7.20;1.75;;;7.60;99.90;;;;;;4992069;28;20622;-91
2023/11/21 03:33:50;;;;;;;4.80;1.70;;;7.50;99.90;;;;;;5010138;28;20195;-91
2023/11/21 03:36:18;;;;;;;4.30;1.48;;;7.60;99.90;;;;;;4988119;28;20196;-91
2023/11/21 03:38:44;;;;;;;3.15;1.25;;;7.50;99.90;;;;;;4994479;28;20869;-91
2023/11/21 03:41:11;;;;;;;4.57;1.50;;;7.50;99.90;;;;;;4990107;28;20200;-91
2023/11/21 03:46:23;;;;;;;4.53;1.58;;;7.70;99.90;;;;;;4989633;28;20203;-91
2023/11/21 03:49:10;;;;;;;2.90;1.77;;;7.70;99.90;;;;;;5006572;28;20199;-91
2023/11/21 03:51:37;;;;;;;2.80;1.42;;;7.70;99.90;;;;;;5007822;28;20695;-91
2023/11/21 03:54:05;;;;;;;6.63;2.30;;;7.70;99.90;;;;;;4987456;28;20198;-91
2023/11/21 03:56:31;;;;;;;4.28;1.35;;;7.70;99.90;;;;;;5010621;28;20203;-91
2023/11/21 03:58:58;;;;;;;4.47;1.45;;;7.70;99.90;;;;;;5007684;28;20226;-91
2023/11/21 04:04:08;;;;;;;4.53;1.40;;;7.60;99.90;;;;;;4971308;28;20878;-91
2023/11/21 04:06:35;;;;;;;2.72;1.20;;;7.50;99.90;;;;;;4999398;28;20257;-91
2023/11/21 04:11:45;;;;;;;4.70;1.30;;;7.60;99.90;;;;;;5008626;28;20207;-91
2023/11/21 04:14:12;;;;;;;2.60;1.10;;;7.70;99.90;;;;;;4986371;28;20242;-92
2023/11/21 04:19:22;;;;;;;4.38;1.33;;;7.60;99.90;;;;;;5003437;28;20208;-91
2023/11/21 04:21:49;;;;;;;2.72;1.20;;;7.60;99.90;;;;;;5006555;28;20191;-91
2023/11/21 04:24:17;;;;;;;3.05;1.60;;;7.60;99.90;;;;;;5009909;28;20196;-91
2023/11/21 04:26:45;;;;;;;4.03;1.40;;;7.60;99.90;;;;;;5010015;28;20207;-91
2023/11/21 04:29:12;;;;;;;2.95;1.40;;;7.60;99.90;;;;;;4991780;28;20217;-91
2023/11/21 04:34:21;;;;;;;2.53;1.27;;;7.60;99.90;;;;;;4990310;28;20683;-91
2023/11/21 04:36:48;;;;;;;3.10;1.00;;;7.70;99.90;;;;;;5007144;28;20191;-91
2023/11/21 04:39:14;;;;;;;4.15;1.40;;;7.70;99.90;;;;;;4982443;28;20222;-91
2023/11/21 04:41:42;;;;;;;6.13;1.42;;;7.70;99.90;;;;;;4989198;28;20226;-91
2023/11/21 04:44:09;;;;;;;2.75;1.10;;;7.80;99.90;;;;;;4973253;28;20273;-91
2023/11/21 04:46:36;;;;;;;3.40;1.20;;;7.80;99.90;;;;;;5004118;28;20204;-91
2023/11/21 04:49:05;;;;;;;3.85;1.60;;;7.80;99.90;;;;;;5002887;28;20210;-91
2023/11/21 04:51:32;;;;;;;2.33;1.08;;;7.80;99.90;;;;;;4991570;28;20223;-90
2023/11/21 04:53:59;;;;;;;1.73;1.20;;;7.90;99.90;;;;;;5003482;28;20269;-90
2023/11/21 04:56:26;;;;;;;3.20;1.10;;;7.80;99.90;;;;;;5010512;28;20210;-90
2023/11/21 04:58:53;;;;;;;3.00;1.10;;;7.70;99.90;;;;;;4988052;28;20202;-90
2023/11/21 05:01:21;;;;;;;1.60;0.85;;;7.80;99.90;;;;;;5009087;28;20205;-91
2023/11/21 05:03:48;;;;;;;2.67;1.05;;;7.90;99.80;;;;;;5006743;28;20206;-91
2023/11/21 05:06:17;;;;;;;2.28;1.10;;;7.70;99.80;;;;;;5010221;28;20199;-91
2023/11/21 05:08:47;;;;;;;4.75;1.17;;;7.70;99.90;;;;;;5003215;28;20583;-91
2023/11/21 05:11:24;;;;;;;3.78;1.45;;;7.70;99.90;;;;;;5006959;28;20199;-91
2023/11/21 05:13:51;;;;;;;2.42;1.10;;;7.60;99.90;;;;;;4972786;28;20282;-91
2023/11/21 05:16:18;;;;;;;2.22;1.20;;;7.60;99.90;;;;;;4994302;28;20203;-90
2023/11/21 05:18:45;;;;;;;1.92;1.30;;;7.50;99.90;;;;;;4993377;28;20693;-91
2023/11/21 05:21:12;;;;;;;2.05;1.20;;;7.50;99.90;;;;;;5009074;28;20198;-91
2023/11/21 05:26:22;;;;;;;4.95;1.58;;;7.40;99.90;;;;;;5031779;28;20207;-91
2023/11/21 05:28:49;;;;;;;2.90;1.40;;;7.50;99.90;;;;;;5022930;28;20287;-91
2023/11/21 05:31:16;;;;;;;3.25;1.10;;;7.60;99.90;;;;;;5006842;28;20207;-92
2023/11/21 05:33:43;;;;;;;4.22;1.30;;;7.60;99.90;;;;;;4988595;28;20215;-90
2023/11/21 05:36:10;;;;;;;1.65;1.25;;;7.60;99.90;;;;;;4990738;28;20206;-92
2023/11/21 05:41:20;;;;;;;2.88;1.50;;;7.60;99.90;;;;;;4991906;28;20216;-93
2023/11/21 05:43:47;;;;;;;2.60;1.30;;;7.70;99.90;;;;;;4995185;28;20607;-91
2023/11/21 05:46:14;;;;;;;2.20;1.27;;;7.70;99.90;;;;;;4977314;28;20200;-91
2023/11/21 05:48:42;;;;;;;2.38;1.00;;;7.70;99.90;;;;;;4990298;28;20198;-90
2023/11/21 05:51:09;;;;;;;2.17;1.33;;;7.70;99.90;;;;;;4988657;28;20231;-90
2023/11/21 05:53:36;;;;;;;5.35;1.20;;;7.70;99.90;;;;;;5009888;28;20227;-89
2023/11/21 05:56:03;;;;;;;3.10;1.48;;;7.70;99.90;;;;;;5005449;28;20202;-90
2023/11/21 05:58:32;;;;;;;3.22;1.02;;;7.60;99.90;;;;;;4987298;28;20271;-89
2023/11/21 06:01:00;;;;;;;3.92;1.40;;;7.60;99.90;;;;;;4983823;28;20246;-91
2023/11/21 06:03:28;;;;;;;2.55;1.30;;;7.60;99.90;;;;;;4992260;28;20203;-91
2023/11/21 06:05:55;;;;;;;4.07;1.55;;;7.60;99.90;;;;;;5006771;28;20660;-91
2023/11/21 06:08:22;;;;;;;3.65;1.80;;;7.70;99.90;;;;;;4993142;28;20202;-93
2023/11/21 06:10:49;;;;;;;3.55;1.52;;;7.70;99.90;;;;;;5004265;28;20203;-92
2023/11/21 06:13:16;;;;;;;3.35;1.38;;;7.80;99.90;;;;;;4991656;28;20561;-90
2023/11/21 06:18:27;;;;;;;3.88;1.20;;;7.80;99.90;;;;;;5007293;28;20267;-94
2023/11/21 06:21:21;;;;;;;3.72;1.13;;;7.70;99.90;;;;;;4976492;28;20221;-94
2023/11/21 06:23:48;;;;;;;4.57;1.23;;;7.60;99.90;;;;;;5006613;28;20204;-91
2023/11/21 06:26:15;;;;;;;2.90;1.23;;;7.50;99.90;;;;;;5010448;28;20207;-94
2023/11/21 06:28:42;;;;;;;2.60;1.35;;;7.60;99.90;;;;;;4987981;28;20250;-91
2023/11/21 06:31:10;;;;;;;2.70;1.15;;;7.60;99.90;;;;;;4973367;28;20220;-89
2023/11/21 06:33:39;;;;;;;3.90;1.35;;;7.80;99.90;;;;;;5008404;28;20222;-90
2023/11/21 06:36:07;;;;;;;2.97;1.20;;;7.90;99.90;;;;;;4990889;28;20223;-90
2023/11/21 06:38:34;;;;;;;3.03;1.20;;;7.80;99.90;;;;;;5012178;28;20203;-90
2023/11/21 06:41:02;;;;;;;5.20;1.35;;;7.80;99.90;;;;;;5009737;28;20202;-90
2023/11/21 06:43:31;;;;;;;3.88;1.17;;;7.60;99.90;;;;;;5009258;28;20206;-90
2023/11/21 06:45:58;;;;;;;4.00;1.13;;;7.60;99.90;;;;;;5004386;28;20207;-90
2023/11/21 06:48:26;;;;;;;1.63;1.20;;;7.60;99.90;;;;;;5010983;28;20261;-90
2023/11/21 06:50:53;;;;;;;2.15;1.25;;;7.60;99.90;;;;;;5012110;28;20695;-90
2023/11/21 06:53:20;;;;;;;1.85;0.90;;;7.70;99.90;;;;;;5010036;28;20223;-90
2023/11/21 06:55:47;;;;;;;2.30;1.30;;;7.60;99.90;;;;;;5007073;28;20286;-90
2023/11/21 06:58:15;;;;;;;2.60;1.23;;;7.60;99.90;;;;;;5009459;28;20200;-90
2023/11/21 07:00:46;;;;;;;1.85;1.05;;;7.80;99.90;;;;;;5006802;28;20203;-90
2023/11/21 07:03:13;;;;;;;3.97;1.42;;;7.80;99.70;;;;;;4994783;28;20282;-90
2023/11/21 07:05:41;;;;;;;3.03;1.30;;;7.70;99.90;;;;;;4997190;28;20230;-90
2023/11/21 07:08:08;;;;;;;2.72;1.30;;;7.90;99.40;;;;;;5005597;28;20258;-90
2023/11/21 07:13:16;;;;;;;2.53;1.20;;;7.80;99.40;;;;;;5008815;28;20317;-90
2023/11/21 07:15:43;;;;;;;4.03;1.23;;;7.80;99.00;;;;;;5003220;28;20205;-90
2023/11/21 07:18:11;;;;;;;6.90;1.20;;;7.80;99.10;;;;;;4993707;28;20207;-90
2023/11/21 07:20:38;;;;;;;2.60;1.20;;;7.90;99.10;;;;;;5010394;28;20254;-90
2023/11/21 07:23:06;;;;;;;2.20;1.30;;;7.90;99.10;;;;;;4993098;28;20199;-90
2023/11/21 07:25:33;;;;;;;2.92;1.35;;;7.80;99.10;;;;;;5000138;28;20199;-91
2023/11/21 07:28:00;;;;;;;3.38;1.25;;;7.90;99.30;;;;;;5011088;28;20295;-90
2023/11/21 07:30:28;;;;;;;3.38;1.15;;;7.90;99.00;;;;;;5008888;28;20221;-90
2023/11/21 07:32:55;;;;;;;2.20;1.05;;;7.90;98.70;;;;;;4993397;28;20302;-90
2023/11/21 07:35:22;;;;;;;4.72;1.30;;;8.10;98.30;;;;;;4994195;28;20282;-90
2023/11/21 07:37:49;;;;;;;2.45;0.95;;;8.10;98.10;;;;;;4993771;28;20213;-90
2023/11/21 07:40:30;;;;;;;2.20;1.20;;;8.10;98.30;;;;;;5008517;28;20206;-90
2023/11/21 07:43:19;;;;;;;1.73;1.00;;;8.00;98.30;;;;;;5006758;28;20310;-90
2023/11/21 07:45:46;;;;;;;3.70;1.27;;;8.00;98.00;;;;;;4977900;28;20235;-90
2023/11/21 07:48:13;;;;;;;1.52;1.10;;;8.00;97.60;;;;;;5008452;28;20203;-90
2023/11/21 07:50:39;;;;;;;2.88;1.25;;;7.90;97.90;;;;;;4990494;28;20195;-91
2023/11/21 07:53:06;;;;;;;2.25;1.35;;;8.10;97.30;;;;;;5007672;28;20219;-92
2023/11/21 07:55:36;;;;;;;2.38;1.00;;;8.10;97.10;;;;;;4975513;28;20203;-91
2023/11/21 07:58:22;;;;;;;3.00;1.10;;;8.20;97.40;;;;;;4992622;28;20203;-93
2023/11/21 08:00:49;;;;;;;2.72;1.10;;;8.30;96.40;;;;;;5006099;28;20234;-92
2023/11/21 08:03:17;;;;;;;2.53;1.00;;;8.30;96.70;;;;;;5004465;28;21680;-90
2023/11/21 08:05:44;;;;;;;2.10;1.20;;;8.30;97.00;;;;;;4985432;28;20199;-90
2023/11/21 08:08:11;;;;;;;2.97;1.30;;;8.20;97.10;;;;;;4984573;28;20224;-91
2023/11/21 08:13:24;;;;;;;6.63;1.45;;;8.20;96.90;;;;;;5007316;28;20223;-90
2023/11/21 08:15:51;;;;;;;2.08;1.10;;;8.40;97.00;;;;;;4991490;28;20206;-90
2023/11/21 08:18:22;;;;;;;7.75;1.40;;;8.50;96.50;;;;;;4995183;28;20217;-90
2023/11/21 08:20:50;;;;;;;1.98;0.95;;;8.50;95.80;;;;;;4984529;28;20210;-90
2023/11/21 08:23:17;;;;;;;2.00;1.08;;;8.70;95.90;;;;;;5008462;28;20211;-89
2023/11/21 08:25:46;;;;;;;1.13;1.02;;;8.70;95.50;;;;;;5003067;28;20203;-90
2023/11/21 08:28:16;;;;;;;1.77;0.73;;;8.70;95.90;;;;;;5007621;28;20975;-90
2023/11/21 08:30:44;;;;;;;1.38;1.08;;;8.70;95.50;;;;;;4993862;28;20257;-90
2023/11/21 08:33:13;;;;;;;1.42;1.17;;;8.60;95.40;;;;;;5001541;28;20238;-90
2023/11/21 08:35:40;;;;;;;3.40;1.30;;;8.50;95.80;;;;;;4979902;28;20218;-90
2023/11/21 08:38:09;;;;;;;2.90;1.20;;;8.60;95.80;;;;;;5029503;28;20183;-91
2023/11/21 08:40:36;;;;;;;2.00;1.00;;;8.60;95.80;;;;;;5033079;28;20199;-91
2023/11/21 08:45:45;;;;;;;1.70;1.00;;;8.50;95.60;;;;;;4999468;28;20203;-91
2023/11/21 08:48:12;;;;;;;2.08;0.95;;;8.50;95.20;;;;;;4985957;28;20203;-90
2023/11/21 08:50:39;;;;;;;2.38;1.00;;;8.60;95.40;;;;;;4988729;28;20203;-90
2023/11/21 08:53:06;;;;;;;2.45;1.23;;;8.50;95.30;;;;;;5007455;28;20199;-90
2023/11/21 08:58:17;;;;;;;2.72;1.20;;;8.60;95.80;;;;;;5006438;28;20313;-90
2023/11/21 09:00:46;;;;;;;2.10;1.38;;;8.70;95.70;;;;;;4989213;28;20206;-90
2023/11/21 09:03:12;;;;;;;4.70;1.20;;;9.10;95.20;;;;;;4986876;28;20226;-90
2023/11/21 09:05:40;;;;;;;2.75;1.40;;;9.60;94.50;;;;;;4988258;28;20668;-90
2023/11/21 09:22:38;;;;;;;3.25;1.40;;;10.30;91.10;;;;;;4996650;28;20207;-90
2023/11/21 09:33:58;;;;;;;3.42;1.20;;;10.10;90.30;;;;;;4965084;28;20230;-90
2023/11/21 09:39:09;;;;;;;2.78;1.25;;;10.00;90.60;;;;;;5003450;28;20219;-90
2023/11/21 09:50:03;;;;;;;3.20;1.42;;;10.00;90.40;;;;;;5000180;28;20203;-89
2023/11/21 09:52:32;;;;;;;2.15;1.40;;;10.00;90.30;;;;;;4990351;28;20249;-90
2023/11/21 09:55:00;;;;;;;1.83;1.10;;;10.00;90.60;;;;;;5005952;28;20211;-90
2023/11/21 09:57:28;;;;;;;2.30;1.40;;;9.80;90.90;;;;;;5007936;28;20207;-90
2023/11/21 09:59:58;;;;;;;2.47;1.27;;;9.60;91.20;;;;;;4988607;28;20683;-90
2023/11/21 10:02:46;;;;;;;2.42;1.00;;;9.70;91.50;;;;;;5008284;28;20203;-90
2023/11/21 10:05:34;;;;;;;2.28;1.17;;;9.60;91.70;;;;;;4979453;28;20203;-90
2023/11/21 10:08:20;;;;;;;3.92;1.35;;;9.70;91.90;;;;;;4982960;28;20234;-90
2023/11/21 10:10:53;;;;;;;3.22;1.48;;;9.90;92.10;;;;;;5010695;28;20195;-90
2023/11/21 10:13:41;;;;;;;2.67;1.20;;;9.80;91.50;;;;;;5003630;28;20289;-90
2023/11/21 10:16:11;;;;;;;4.38;1.52;;;9.70;91.80;;;;;;5010702;28;20200;-90
2023/11/21 10:18:59;;;;;;;2.95;2.38;;;9.80;91.40;;;;;;5003824;28;20203;-90
2023/11/21 10:21:28;;;;;;;9.90;8.07;;;9.90;91.00;;;;;;4993276;28;20287;-90
2023/11/21 10:26:38;;;;;;;7.78;5.55;;;10.30;91.60;;;;;;4993391;28;20207;-90
2023/11/21 10:29:06;;;;;;;5.63;2.63;;;10.70;90.10;;;;;;4995297;28;20210;-90
2023/11/21 10:31:34;;;;;;;6.07;3.60;;;10.90;87.10;;;;;;4994722;28;20258;-90
2023/11/21 10:37:19;;;;;;;7.03;4.95;;;11.40;83.80;;;;;;4920941;28;20566;-90
2023/11/21 10:39:46;;;;;;;2.53;1.20;;;11.50;82.00;;;;;;5008720;28;20196;-90
2023/11/21 10:42:13;;;;;;;8.50;6.07;;;11.40;79.30;;;;;;5004405;28;20208;-90
2023/11/21 10:47:35;;;;;;;8.93;6.72;;;11.20;82.70;;;;;;5005834;28;20708;-90
2023/11/21 11:04:43;;;;;;;3.78;2.22;;;10.40;88.20;;;;;;5008749;28;20204;-90
2023/11/21 11:10:17;;;;;;;4.30;1.70;;;10.40;90.20;;;;;;5001903;28;20207;-90
2023/11/21 11:12:52;;;;;;;1.83;1.33;;;10.40;89.30;;;;;;5004744;28;20206;-89
2023/11/21 11:15:39;;;;;;;2.80;1.20;;;10.30;90.20;;;;;;5005191;28;20270;-90
2023/11/21 11:18:25;;;;;;;2.42;1.25;;;10.10;90.30;;;;;;4988813;28;20218;-89
2023/11/21 11:20:54;;;;;;;1.90;1.48;;;10.00;91.00;;;;;;5008260;28;20207;-89
2023/11/21 11:23:38;;;;;;;2.88;1.40;;;10.10;91.40;;;;;;4992672;28;20226;-89
2023/11/21 11:32:23;;;;;;;2.13;1.58;;;10.70;90.40;;;;;;5005033;28;20226;-89
2023/11/21 11:34:58;;;;;;;3.13;1.30;;;10.70;90.40;;;;;;5004154;28;20225;-89
2023/11/21 11:51:47;;;;;;;3.15;1.40;;;10.40;88.90;;;;;;4924680;28;20206;-89
2023/11/21 12:00:37;;;;;;;1.77;1.05;;;10.20;90.30;;;;;;5000782;28;20657;-88
2023/11/21 12:03:07;;;;;;;2.95;1.50;;;10.10;89.90;;;;;;5006078;28;20204;-88
2023/11/21 12:05:36;;;;;;;1.40;1.20;;;10.20;89.90;;;;;;5003332;28;20200;-90
2023/11/21 12:08:05;;;;;;;3.30;1.08;;;10.20;90.40;;;;;;4986868;28;20258;-88
2023/11/21 12:10:32;;;;;;;2.20;1.27;;;10.20;90.30;;;;;;5002577;28;20229;-89
2023/11/21 12:13:02;;;;;;;1.63;1.20;;;10.20;90.30;;;;;;5010550;28;20286;-88
2023/11/21 12:15:31;;;;;;;2.20;1.33;;;10.20;90.30;;;;;;5002463;28;20222;-88
2023/11/21 12:17:59;;;;;;;1.38;1.23;;;10.30;90.20;;;;;;5003493;28;20199;-88
2023/11/21 12:20:29;;;;;;;2.10;1.30;;;10.20;90.20;;;;;;4984779;28;20676;-89
2023/11/21 12:23:16;;;;;;;1.42;1.20;;;10.30;89.60;;;;;;4998660;28;20212;-87
2023/11/21 12:25:44;;;;;;;2.17;1.23;;;10.40;89.30;;;;;;5004934;28;20202;-88
2023/11/21 12:28:14;;;;;;;2.85;1.50;;;10.40;89.30;;;;;;4984980;28;20720;-89
2023/11/21 12:30:41;;;;;;;1.52;1.23;;;10.40;88.80;;;;;;4983906;28;20718;-88
2023/11/21 12:33:09;;;;;;;1.73;1.35;;;10.30;89.40;;;;;;4988098;28;20621;-88
2023/11/21 12:35:37;;;;;;;1.45;1.10;;;10.40;88.70;;;;;;5002348;28;20707;-88
2023/11/21 12:38:05;;;;;;;1.77;1.15;;;10.30;88.80;;;;;;5003994;28;20206;-87
2023/11/21 12:40:32;;;;;;;1.35;1.23;;;10.30;87.70;;;;;;5006878;28;20210;-87
2023/11/21 12:43:01;;;;;;;2.60;1.60;;;10.30;88.80;;;;;;5007232;28;20192;-87
2023/11/21 12:45:31;;;;;;;3.38;1.35;;;10.20;87.80;;;;;;5006857;28;20291;-87
2023/11/21 12:48:07;;;;;;;3.03;1.00;;;10.30;89.50;;;;;;5005365;28;20206;-86
2023/11/21 12:50:36;;;;;;;2.17;1.10;;;10.40;86.10;;;;;;4993311;28;20203;-87
2023/11/21 12:53:05;;;;;;;0.93;0.93;;;10.40;86.40;;;;;;5004633;28;20765;-87
2023/11/21 12:55:37;;;;;;;1.65;1.27;;;10.50;85.50;;;;;;4986651;28;20265;-87
2023/11/21 12:58:14;;;;;;;1.88;1.25;;;10.60;85.90;;;;;;4986811;28;20196;-87
2023/11/21 13:00:47;;;;;;;1.27;1.17;;;10.60;84.50;;;;;;5004966;28;20199;-89
2023/11/21 13:03:17;;;;;;;2.85;1.08;;;10.40;83.90;;;;;;5001233;28;20210;-88
2023/11/21 13:05:46;;;;;;;2.17;1.17;;;10.40;86.10;;;;;;4988174;28;20261;-88
2023/11/21 13:08:18;;;;;;;1.23;0.93;;;10.30;88.50;;;;;;5005167;28;20210;-87
2023/11/21 13:10:46;;;;;;;0.95;0.80;;;10.00;90.30;;;;;;5002943;28;20199;-87
2023/11/21 13:13:17;;;;;;;1.25;0.70;;;9.50;90.60;;;;;;4987467;28;20627;-87
2023/11/21 13:15:55;;;;;;;1.45;0.80;;;9.10;92.20;;;;;;4965429;28;20592;-87
2023/11/21 13:18:23;;;;;;;1.60;0.90;;;8.80;94.80;;;;;;4984789;28;20204;-88
2023/11/21 13:20:50;;;;;;;1.83;0.90;;;8.70;95.80;;;;;;5003450;28;20206;-88
2023/11/21 13:23:17;;;;;;;1.92;1.05;;;8.50;96.60;;;;;;5000952;28;20227;-88
2023/11/21 13:25:45;;;;;;;2.15;1.10;;;8.40;98.00;;;;;;5004337;28;20749;-88
2023/11/21 13:28:13;;;;;;;2.85;1.00;;;8.30;99.30;;;;;;5006279;28;20234;-88
2023/11/21 13:30:40;;;;;;;0.93;0.88;;;8.20;99.90;;;;;;4969540;28;20263;-88
2023/11/21 13:35:52;;;;;;;1.48;0.85;;;8.20;99.90;;;;;;5004790;28;20215;-87
2023/11/21 13:38:23;;;;;;;1.38;1.00;;;8.20;99.90;;;;;;4974057;28;20294;-87
2023/11/21 13:41:07;;;;;;;2.30;0.98;;;8.20;99.90;;;;;;4989986;28;20215;-88
2023/11/21 13:43:34;;;;;;;3.13;1.33;;;8.30;99.90;;;;;;5001121;28;20200;-88
2023/11/21 13:46:06;;;;;;;1.98;1.20;;;8.40;99.90;;;;;;5007910;28;20200;-88
2023/11/21 13:51:17;;;;;;;2.30;1.30;;;8.70;99.90;;;;;;5006304;28;20602;-88
2023/11/21 13:53:45;;;;;;;3.65;1.38;;;8.90;99.90;;;;;;5007197;28;20215;-87
2023/11/21 13:56:16;;;;;;;4.32;1.35;;;8.90;99.90;;;;;;5004747;28;20580;-86
2023/11/21 13:58:50;;;;;;;1.88;1.00;;;9.00;99.90;;;;;;5009896;28;20198;-88
2023/11/21 14:01:42;;;;;;;2.55;1.38;;;9.20;99.90;;;;;;5007582;28;20197;-88
2023/11/21 14:04:19;;;;;;;1.98;1.35;;;9.30;99.90;;;;;;5000474;28;20207;-88
2023/11/21 14:06:54;;;;;;;2.03;1.20;;;9.30;99.90;;;;;;5008601;28;20652;-88
2023/11/21 14:09:24;;;;;;;1.95;1.27;;;9.30;99.90;;;;;;5012359;28;20267;-88
2023/11/21 14:11:53;;;;;;;4.45;1.70;;;9.30;99.90;;;;;;5010210;28;20204;-88
2023/11/21 14:14:22;;;;;;;5.57;1.98;;;9.20;99.90;;;;;;4989422;28;20211;-88
2023/11/21 14:16:50;;;;;;;1.63;1.10;;;9.10;99.90;;;;;;5005246;28;20200;-88
2023/11/21 14:19:27;;;;;;;1.70;1.38;;;8.90;99.90;;;;;;5010172;28;20716;-89
2023/11/21 14:21:54;;;;;;;1.20;0.90;;;8.80;99.70;;;;;;4988636;28;20214;-89
2023/11/21 14:24:23;;;;;;;1.23;1.13;;;8.60;99.90;;;;;;4993456;28;20195;-90
2023/11/21 14:26:51;;;;;;;1.38;1.10;;;8.60;99.40;;;;;;4987156;28;20199;-91
2023/11/21 14:29:23;;;;;;;1.27;1.00;;;8.60;99.20;;;;;;5004944;28;20213;-90
2023/11/21 14:31:51;;;;;;;1.15;0.93;;;8.70;99.20;;;;;;5006884;28;20207;-89
2023/11/21 14:34:19;;;;;;;1.25;1.15;;;8.70;98.50;;;;;;4994286;28;20199;-90
2023/11/21 14:36:46;;;;;;;1.70;1.10;;;8.60;98.80;;;;;;5013172;28;20225;-91
2023/11/21 14:39:22;;;;;;;1.98;1.10;;;8.70;99.40;;;;;;5013728;28;20209;-90
2023/11/21 14:41:49;;;;;;;4.63;1.00;;;8.80;99.30;;;;;;5007371;28;20739;-89
2023/11/21 14:44:17;;;;;;;2.67;1.10;;;8.70;99.80;;;;;;5011124;28;20682;-89
2023/11/21 14:46:46;;;;;;;1.15;1.05;;;8.50;99.90;;;;;;5012900;28;20655;-89
2023/11/21 14:49:19;;;;;;;1.05;0.95;;;8.40;99.90;;;;;;4991911;28;20199;-89
2023/11/21 14:52:00;;;;;;;1.20;1.00;;;8.40;99.90;;;;;;4968177;28;20246;-89
2023/11/21 14:54:39;;;;;;;1.65;1.20;;;8.40;99.90;;;;;;4995927;28;20203;-89
2023/11/21 14:57:11;;;;;;;0.95;0.95;;;8.50;99.90;;;;;;5010034;28;20197;-89
2023/11/21 14:59:37;;;;;;;2.08;1.30;;;8.50;99.90;;;;;;5008351;28;20202;-90
2023/11/21 15:02:15;;;;;;;4.25;1.30;;;8.40;99.90;;;;;;4972935;28;20210;-89
2023/11/21 15:04:42;;;;;;;2.40;1.27;;;8.30;99.90;;;;;;4982123;28;20238;-90
2023/11/21 15:09:53;;;;;;;3.28;1.23;;;8.20;99.90;;;;;;5019013;28;20290;-89
2023/11/21 15:12:22;;;;;;;3.90;2.85;;;8.20;99.90;;;;;;5001262;28;20222;-90
2023/11/21 15:14:53;;;;;;;1.30;1.20;;;8.20;99.90;;;;;;5014815;28;20214;-90
2023/11/21 15:17:25;;;;;;;1.30;1.20;;;8.20;99.90;;;;;;4997394;28;20673;-90
2023/11/21 15:19:53;;;;;;;5.55;1.42;;;8.40;99.90;;;;;;5007030;28;20199;-90
2023/11/21 15:22:22;;;;;;;4.15;1.70;;;8.50;99.90;;;;;;4990820;28;20207;-90
2023/11/21 15:24:49;;;;;;;4.20;1.50;;;8.30;99.90;;;;;;4983764;28;20310;-90
2023/11/21 15:27:17;;;;;;;3.85;1.65;;;8.40;99.90;;;;;;4988660;28;20287;-90
2023/11/21 15:29:44;;;;;;;2.70;1.50;;;8.50;99.90;;;;;;4991461;28;20207;-90
2023/11/21 15:32:11;;;;;;;3.03;1.58;;;8.40;99.90;;;;;;4985955;28;20211;-90
2023/11/21 15:34:39;;;;;;;2.03;1.40;;;8.30;99.90;;;;;;5003710;28;20215;-90